sensor_id;sensor_type;location;lat;lon;timestamp;P1;durP1;ratioP1;P2;durP2;ratioP2
39218;SDS011;24934;52.752;6.964;2023-02-11T00:01:07;36.07;;;20.17;;
39218;SDS011;24934;52.752;6.964;2023-02-11T00:03:43;35.13;;;18.97;;
39218;SDS011;24934;52.752;6.964;2023-02-11T00:06:09;33.50;;;19.07;;
39218;SDS011;24934;52.752;6.964;2023-02-11T00:08:35;28.83;;;18.13;;
39218;SDS011;24934;52.752;6.964;2023-02-11T00:11:01;28.50;;;17.33;;
39218;SDS011;24934;52.752;6.964;2023-02-11T00:13:27;42.17;;;18.90;;
39218;SDS011;24934;52.752;6.964;2023-02-11T00:15:53;32.83;;;18.87;;
39218;SDS011;24934;52.752;6.964;2023-02-11T00:18:19;32.03;;;18.20;;
39218;SDS011;24934;52.752;6.964;2023-02-11T00:20:45;33.60;;;18.00;;
39218;SDS011;24934;52.752;6.964;2023-02-11T00:23:10;30.67;;;18.00;;
39218;SDS011;24934;52.752;6.964;2023-02-11T00:25:40;34.00;;;17.20;;
39218;SDS011;24934;52.752;6.964;2023-02-11T00:28:06;36.20;;;18.23;;
39218;SDS011;24934;52.752;6.964;2023-02-11T00:30:33;34.47;;;17.63;;
39218;SDS011;24934;52.752;6.964;2023-02-11T00:33:02;35.33;;;16.70;;
39218;SDS011;24934;52.752;6.964;2023-02-11T00:35:30;37.33;;;17.40;;
39218;SDS011;24934;52.752;6.964;2023-02-11T00:37:56;38.57;;;17.47;;
39218;SDS011;24934;52.752;6.964;2023-02-11T00:40:22;30.60;;;16.40;;
39218;SDS011;24934;52.752;6.964;2023-02-11T00:42:47;38.07;;;17.00;;
39218;SDS011;24934;52.752;6.964;2023-02-11T00:45:13;35.87;;;17.03;;
39218;SDS011;24934;52.752;6.964;2023-02-11T00:47:39;35.73;;;16.50;;
39218;SDS011;24934;52.752;6.964;2023-02-11T00:50:04;38.87;;;16.90;;
39218;SDS011;24934;52.752;6.964;2023-02-11T00:52:32;36.07;;;16.70;;
39218;SDS011;24934;52.752;6.964;2023-02-11T00:54:58;33.43;;;16.23;;
39218;SDS011;24934;52.752;6.964;2023-02-11T00:57:27;31.40;;;16.57;;
39218;SDS011;24934;52.752;6.964;2023-02-11T00:59:52;28.93;;;15.63;;
39218;SDS011;24934;52.752;6.964;2023-02-11T01:02:18;34.63;;;15.90;;
39218;SDS011;24934;52.752;6.964;2023-02-11T01:04:44;30.67;;;15.57;;
39218;SDS011;24934;52.752;6.964;2023-02-11T01:07:09;35.07;;;16.33;;
39218;SDS011;24934;52.752;6.964;2023-02-11T01:09:38;34.20;;;15.47;;
39218;SDS011;24934;52.752;6.964;2023-02-11T01:12:04;37.57;;;15.70;;
39218;SDS011;24934;52.752;6.964;2023-02-11T01:14:29;36.17;;;15.50;;
39218;SDS011;24934;52.752;6.964;2023-02-11T01:16:55;33.73;;;15.10;;
39218;SDS011;24934;52.752;6.964;2023-02-11T01:19:24;31.33;;;14.40;;
39218;SDS011;24934;52.752;6.964;2023-02-11T01:21:53;35.80;;;14.83;;
39218;SDS011;24934;52.752;6.964;2023-02-11T01:24:18;30.57;;;14.57;;
39218;SDS011;24934;52.752;6.964;2023-02-11T01:26:44;36.60;;;14.83;;
39218;SDS011;24934;52.752;6.964;2023-02-11T01:29:09;34.27;;;15.63;;
39218;SDS011;24934;52.752;6.964;2023-02-11T01:31:35;28.93;;;14.80;;
39218;SDS011;24934;52.752;6.964;2023-02-11T01:34:01;32.80;;;14.07;;
39218;SDS011;24934;52.752;6.964;2023-02-11T01:36:26;28.97;;;14.53;;
39218;SDS011;24934;52.752;6.964;2023-02-11T01:38:52;27.80;;;13.80;;
39218;SDS011;24934;52.752;6.964;2023-02-11T01:41:20;32.20;;;15.00;;
39218;SDS011;24934;52.752;6.964;2023-02-11T01:43:47;36.83;;;15.20;;
39218;SDS011;24934;52.752;6.964;2023-02-11T01:49:11;35.33;;;14.17;;
39218;SDS011;24934;52.752;6.964;2023-02-11T01:54:24;29.30;;;13.60;;
39218;SDS011;24934;52.752;6.964;2023-02-11T01:57:20;31.33;;;13.77;;
39218;SDS011;24934;52.752;6.964;2023-02-11T02:02:20;28.13;;;13.43;;
39218;SDS011;24934;52.752;6.964;2023-02-11T02:04:54;33.57;;;14.27;;
39218;SDS011;24934;52.752;6.964;2023-02-11T02:10:40;36.33;;;13.43;;
39218;SDS011;24934;52.752;6.964;2023-02-11T02:13:08;28.13;;;13.30;;
39218;SDS011;24934;52.752;6.964;2023-02-11T02:15:38;27.93;;;13.17;;
39218;SDS011;24934;52.752;6.964;2023-02-11T02:27:36;33.47;;;13.37;;
39218;SDS011;24934;52.752;6.964;2023-02-11T02:32:52;30.67;;;12.87;;
39218;SDS011;24934;52.752;6.964;2023-02-11T02:41:12;32.07;;;13.33;;
39218;SDS011;24934;52.752;6.964;2023-02-11T02:43:42;32.17;;;13.57;;
39218;SDS011;24934;52.752;6.964;2023-02-11T02:48:50;32.30;;;13.67;;
39218;SDS011;24934;52.752;6.964;2023-02-11T02:51:36;35.57;;;13.50;;
39218;SDS011;24934;52.752;6.964;2023-02-11T02:54:35;34.87;;;14.53;;
39218;SDS011;24934;52.752;6.964;2023-02-11T02:57:19;36.83;;;15.17;;
39218;SDS011;24934;52.752;6.964;2023-02-11T03:08:12;35.37;;;15.70;;
39218;SDS011;24934;52.752;6.964;2023-02-11T03:10:44;33.40;;;16.63;;
39218;SDS011;24934;52.752;6.964;2023-02-11T03:13:13;37.60;;;15.00;;
39218;SDS011;24934;52.752;6.964;2023-02-11T03:15:45;35.03;;;15.17;;
39218;SDS011;24934;52.752;6.964;2023-02-11T03:18:14;28.00;;;14.90;;
39218;SDS011;24934;52.752;6.964;2023-02-11T03:20:43;32.83;;;15.30;;
39218;SDS011;24934;52.752;6.964;2023-02-11T03:23:15;37.47;;;15.60;;
39218;SDS011;24934;52.752;6.964;2023-02-11T03:25:49;32.97;;;15.60;;
39218;SDS011;24934;52.752;6.964;2023-02-11T03:28:34;45.60;;;16.53;;
39218;SDS011;24934;52.752;6.964;2023-02-11T03:31:27;37.97;;;15.80;;
39218;SDS011;24934;52.752;6.964;2023-02-11T03:36:47;32.87;;;15.80;;
39218;SDS011;24934;52.752;6.964;2023-02-11T03:39:26;36.30;;;15.90;;
39218;SDS011;24934;52.752;6.964;2023-02-11T03:42:02;32.23;;;16.43;;
39218;SDS011;24934;52.752;6.964;2023-02-11T03:44:31;34.63;;;16.30;;
39218;SDS011;24934;52.752;6.964;2023-02-11T03:47:04;38.07;;;17.40;;
39218;SDS011;24934;52.752;6.964;2023-02-11T03:49:33;37.40;;;16.63;;
39218;SDS011;24934;52.752;6.964;2023-02-11T03:52:03;40.70;;;18.23;;
39218;SDS011;24934;52.752;6.964;2023-02-11T03:54:30;46.13;;;16.97;;
39218;SDS011;24934;52.752;6.964;2023-02-11T03:56:57;39.70;;;17.80;;
39218;SDS011;24934;52.752;6.964;2023-02-11T03:59:24;34.97;;;17.33;;
39218;SDS011;24934;52.752;6.964;2023-02-11T04:01:50;35.20;;;17.10;;
39218;SDS011;24934;52.752;6.964;2023-02-11T04:04:16;42.10;;;18.20;;
39218;SDS011;24934;52.752;6.964;2023-02-11T04:06:42;43.70;;;18.50;;
39218;SDS011;24934;52.752;6.964;2023-02-11T04:09:08;41.83;;;17.80;;
39218;SDS011;24934;52.752;6.964;2023-02-11T04:11:37;43.20;;;18.77;;
39218;SDS011;24934;52.752;6.964;2023-02-11T04:14:03;39.80;;;17.60;;
39218;SDS011;24934;52.752;6.964;2023-02-11T04:16:28;44.77;;;19.47;;
39218;SDS011;24934;52.752;6.964;2023-02-11T04:18:55;39.80;;;20.40;;
39218;SDS011;24934;52.752;6.964;2023-02-11T04:21:21;42.17;;;19.43;;
39218;SDS011;24934;52.752;6.964;2023-02-11T04:23:47;39.10;;;18.90;;
39218;SDS011;24934;52.752;6.964;2023-02-11T04:26:12;41.53;;;19.57;;
39218;SDS011;24934;52.752;6.964;2023-02-11T04:28:41;34.23;;;20.00;;
39218;SDS011;24934;52.752;6.964;2023-02-11T04:31:07;43.83;;;20.23;;
39218;SDS011;24934;52.752;6.964;2023-02-11T04:33:32;50.87;;;21.20;;
39218;SDS011;24934;52.752;6.964;2023-02-11T04:35:58;39.10;;;20.83;;
39218;SDS011;24934;52.752;6.964;2023-02-11T04:38:23;50.47;;;21.10;;
39218;SDS011;24934;52.752;6.964;2023-02-11T04:40:49;47.93;;;21.07;;
39218;SDS011;24934;52.752;6.964;2023-02-11T04:43:15;48.30;;;22.17;;
39218;SDS011;24934;52.752;6.964;2023-02-11T04:45:40;45.97;;;20.97;;
39218;SDS011;24934;52.752;6.964;2023-02-11T04:48:06;40.77;;;22.03;;
39218;SDS011;24934;52.752;6.964;2023-02-11T04:50:32;42.77;;;21.57;;
39218;SDS011;24934;52.752;6.964;2023-02-11T04:52:57;41.93;;;22.67;;
39218;SDS011;24934;52.752;6.964;2023-02-11T04:55:23;41.63;;;22.50;;
39218;SDS011;24934;52.752;6.964;2023-02-11T04:57:48;42.87;;;22.63;;
39218;SDS011;24934;52.752;6.964;2023-02-11T05:00:14;49.80;;;23.13;;
39218;SDS011;24934;52.752;6.964;2023-02-11T05:02:40;54.00;;;22.97;;
39218;SDS011;24934;52.752;6.964;2023-02-11T05:05:06;46.73;;;23.00;;
39218;SDS011;24934;52.752;6.964;2023-02-11T05:07:34;51.90;;;24.20;;
39218;SDS011;24934;52.752;6.964;2023-02-11T05:09:59;47.47;;;23.20;;
39218;SDS011;24934;52.752;6.964;2023-02-11T05:12:25;46.73;;;24.30;;
39218;SDS011;24934;52.752;6.964;2023-02-11T05:14:51;47.83;;;23.33;;
39218;SDS011;24934;52.752;6.964;2023-02-11T05:17:16;47.43;;;23.73;;
39218;SDS011;24934;52.752;6.964;2023-02-11T05:19:42;51.77;;;24.57;;
39218;SDS011;24934;52.752;6.964;2023-02-11T05:22:08;45.97;;;24.67;;
39218;SDS011;24934;52.752;6.964;2023-02-11T05:24:33;52.90;;;26.93;;
39218;SDS011;24934;52.752;6.964;2023-02-11T05:27:01;52.37;;;27.10;;
39218;SDS011;24934;52.752;6.964;2023-02-11T05:29:27;53.33;;;25.97;;
39218;SDS011;24934;52.752;6.964;2023-02-11T05:31:53;48.97;;;27.03;;
39218;SDS011;24934;52.752;6.964;2023-02-11T05:34:19;53.97;;;27.00;;
39218;SDS011;24934;52.752;6.964;2023-02-11T05:36:44;58.60;;;28.20;;
39218;SDS011;24934;52.752;6.964;2023-02-11T05:39:10;46.63;;;25.90;;
39218;SDS011;24934;52.752;6.964;2023-02-11T05:41:36;51.67;;;27.77;;
39218;SDS011;24934;52.752;6.964;2023-02-11T05:44:02;55.40;;;27.23;;
39218;SDS011;24934;52.752;6.964;2023-02-11T05:46:28;56.90;;;28.30;;
39218;SDS011;24934;52.752;6.964;2023-02-11T05:48:53;53.53;;;28.20;;
39218;SDS011;24934;52.752;6.964;2023-02-11T05:51:20;50.00;;;27.77;;
39218;SDS011;24934;52.752;6.964;2023-02-11T05:53:46;50.50;;;28.47;;
39218;SDS011;24934;52.752;6.964;2023-02-11T05:56:12;48.80;;;28.17;;
39218;SDS011;24934;52.752;6.964;2023-02-11T05:58:38;56.73;;;29.50;;
39218;SDS011;24934;52.752;6.964;2023-02-11T06:01:04;56.93;;;28.37;;
39218;SDS011;24934;52.752;6.964;2023-02-11T06:03:30;63.50;;;28.63;;
39218;SDS011;24934;52.752;6.964;2023-02-11T06:05:55;52.53;;;28.57;;
39218;SDS011;24934;52.752;6.964;2023-02-11T06:08:21;49.70;;;27.97;;
39218;SDS011;24934;52.752;6.964;2023-02-11T06:10:47;50.53;;;27.17;;
39218;SDS011;24934;52.752;6.964;2023-02-11T06:13:12;54.10;;;27.40;;
39218;SDS011;24934;52.752;6.964;2023-02-11T06:15:44;50.73;;;27.13;;
39218;SDS011;24934;52.752;6.964;2023-02-11T06:18:19;55.13;;;27.17;;
39218;SDS011;24934;52.752;6.964;2023-02-11T06:20:44;56.53;;;27.70;;
39218;SDS011;24934;52.752;6.964;2023-02-11T06:23:10;51.40;;;28.10;;
39218;SDS011;24934;52.752;6.964;2023-02-11T06:25:36;59.63;;;28.73;;
39218;SDS011;24934;52.752;6.964;2023-02-11T06:28:01;56.40;;;29.03;;
39218;SDS011;24934;52.752;6.964;2023-02-11T06:30:27;66.67;;;29.90;;
39218;SDS011;24934;52.752;6.964;2023-02-11T06:32:52;55.53;;;29.43;;
39218;SDS011;24934;52.752;6.964;2023-02-11T06:35:18;64.73;;;29.77;;
39218;SDS011;24934;52.752;6.964;2023-02-11T06:37:44;61.90;;;30.67;;
39218;SDS011;24934;52.752;6.964;2023-02-11T06:40:13;66.33;;;31.00;;
39218;SDS011;24934;52.752;6.964;2023-02-11T06:42:42;72.13;;;32.43;;
39218;SDS011;24934;52.752;6.964;2023-02-11T06:45:08;64.37;;;32.23;;
39218;SDS011;24934;52.752;6.964;2023-02-11T06:47:35;56.33;;;31.43;;
39218;SDS011;24934;52.752;6.964;2023-02-11T06:50:01;67.13;;;31.90;;
39218;SDS011;24934;52.752;6.964;2023-02-11T06:52:27;66.80;;;32.13;;
39218;SDS011;24934;52.752;6.964;2023-02-11T06:54:52;61.47;;;32.57;;
39218;SDS011;24934;52.752;6.964;2023-02-11T06:57:18;59.60;;;32.00;;
39218;SDS011;24934;52.752;6.964;2023-02-11T06:59:44;65.13;;;32.93;;
39218;SDS011;24934;52.752;6.964;2023-02-11T07:02:09;64.17;;;34.63;;
39218;SDS011;24934;52.752;6.964;2023-02-11T07:04:35;63.73;;;32.93;;
39218;SDS011;24934;52.752;6.964;2023-02-11T07:07:06;66.33;;;33.87;;
39218;SDS011;24934;52.752;6.964;2023-02-11T07:09:32;70.90;;;34.20;;
39218;SDS011;24934;52.752;6.964;2023-02-11T07:11:57;70.67;;;34.50;;
39218;SDS011;24934;52.752;6.964;2023-02-11T07:14:23;64.90;;;33.53;;
39218;SDS011;24934;52.752;6.964;2023-02-11T07:16:49;69.47;;;34.97;;
39218;SDS011;24934;52.752;6.964;2023-02-11T07:19:15;67.73;;;36.50;;
39218;SDS011;24934;52.752;6.964;2023-02-11T07:21:40;68.63;;;34.97;;
39218;SDS011;24934;52.752;6.964;2023-02-11T07:24:09;69.70;;;35.57;;
39218;SDS011;24934;52.752;6.964;2023-02-11T07:26:35;72.03;;;37.53;;
39218;SDS011;24934;52.752;6.964;2023-02-11T07:29:01;62.17;;;36.00;;
39218;SDS011;24934;52.752;6.964;2023-02-11T07:31:28;66.93;;;35.53;;
39218;SDS011;24934;52.752;6.964;2023-02-11T07:33:55;74.37;;;37.77;;
39218;SDS011;24934;52.752;6.964;2023-02-11T07:36:24;65.60;;;35.67;;
39218;SDS011;24934;52.752;6.964;2023-02-11T07:38:50;63.20;;;34.93;;
39218;SDS011;24934;52.752;6.964;2023-02-11T07:41:20;62.70;;;36.03;;
39218;SDS011;24934;52.752;6.964;2023-02-11T07:43:47;63.23;;;35.60;;
39218;SDS011;24934;52.752;6.964;2023-02-11T07:46:14;66.03;;;36.70;;
39218;SDS011;24934;52.752;6.964;2023-02-11T07:48:42;63.97;;;35.20;;
39218;SDS011;24934;52.752;6.964;2023-02-11T07:51:08;58.53;;;34.83;;
39218;SDS011;24934;52.752;6.964;2023-02-11T07:53:41;65.07;;;34.97;;
39218;SDS011;24934;52.752;6.964;2023-02-11T07:56:08;71.60;;;35.27;;
39218;SDS011;24934;52.752;6.964;2023-02-11T07:58:34;78.50;;;36.20;;
39218;SDS011;24934;52.752;6.964;2023-02-11T08:01:09;66.43;;;35.23;;
39218;SDS011;24934;52.752;6.964;2023-02-11T08:03:36;65.07;;;35.47;;
39218;SDS011;24934;52.752;6.964;2023-02-11T08:06:12;60.17;;;33.83;;
39218;SDS011;24934;52.752;6.964;2023-02-11T08:08:42;63.30;;;35.93;;
39218;SDS011;24934;52.752;6.964;2023-02-11T08:11:09;59.53;;;34.37;;
39218;SDS011;24934;52.752;6.964;2023-02-11T08:13:39;62.37;;;33.87;;
39218;SDS011;24934;52.752;6.964;2023-02-11T08:16:06;61.63;;;34.80;;
39218;SDS011;24934;52.752;6.964;2023-02-11T08:18:32;71.20;;;35.47;;
39218;SDS011;24934;52.752;6.964;2023-02-11T08:21:05;61.90;;;34.20;;
39218;SDS011;24934;52.752;6.964;2023-02-11T08:23:32;62.07;;;33.67;;
39218;SDS011;24934;52.752;6.964;2023-02-11T08:26:03;62.00;;;33.90;;
39218;SDS011;24934;52.752;6.964;2023-02-11T08:28:30;62.73;;;36.03;;
39218;SDS011;24934;52.752;6.964;2023-02-11T08:31:13;63.33;;;33.57;;
39218;SDS011;24934;52.752;6.964;2023-02-11T08:33:39;65.73;;;34.83;;
39218;SDS011;24934;52.752;6.964;2023-02-11T08:36:08;63.27;;;34.53;;
39218;SDS011;24934;52.752;6.964;2023-02-11T08:38:36;68.97;;;35.13;;
39218;SDS011;24934;52.752;6.964;2023-02-11T08:41:02;62.63;;;35.40;;
39218;SDS011;24934;52.752;6.964;2023-02-11T08:43:28;64.00;;;33.70;;
39218;SDS011;24934;52.752;6.964;2023-02-11T08:45:54;69.73;;;35.90;;
39218;SDS011;24934;52.752;6.964;2023-02-11T08:48:22;60.67;;;34.77;;
39218;SDS011;24934;52.752;6.964;2023-02-11T08:50:48;62.60;;;35.03;;
39218;SDS011;24934;52.752;6.964;2023-02-11T08:53:13;64.70;;;35.10;;
39218;SDS011;24934;52.752;6.964;2023-02-11T08:55:39;60.97;;;34.93;;
39218;SDS011;24934;52.752;6.964;2023-02-11T08:58:05;59.07;;;34.33;;
39218;SDS011;24934;52.752;6.964;2023-02-11T09:00:30;58.57;;;34.03;;
39218;SDS011;24934;52.752;6.964;2023-02-11T09:02:56;56.70;;;33.97;;
39218;SDS011;24934;52.752;6.964;2023-02-11T09:05:22;56.17;;;33.57;;
39218;SDS011;24934;52.752;6.964;2023-02-11T09:07:47;63.20;;;34.37;;
39218;SDS011;24934;52.752;6.964;2023-02-11T09:10:16;59.77;;;35.37;;
39218;SDS011;24934;52.752;6.964;2023-02-11T09:12:42;57.03;;;34.40;;
39218;SDS011;24934;52.752;6.964;2023-02-11T09:15:07;64.17;;;34.93;;
39218;SDS011;24934;52.752;6.964;2023-02-11T09:17:33;53.97;;;33.17;;
39218;SDS011;24934;52.752;6.964;2023-02-11T09:19:59;62.03;;;33.80;;
39218;SDS011;24934;52.752;6.964;2023-02-11T09:22:25;52.77;;;33.40;;
39218;SDS011;24934;52.752;6.964;2023-02-11T09:24:50;59.03;;;34.67;;
39218;SDS011;24934;52.752;6.964;2023-02-11T09:27:16;62.13;;;34.60;;
39218;SDS011;24934;52.752;6.964;2023-02-11T09:29:41;58.20;;;32.40;;
39218;SDS011;24934;52.752;6.964;2023-02-11T09:32:07;51.37;;;32.13;;
39218;SDS011;24934;52.752;6.964;2023-02-11T09:34:33;56.90;;;34.07;;
39218;SDS011;24934;52.752;6.964;2023-02-11T09:37:01;51.77;;;31.80;;
39218;SDS011;24934;52.752;6.964;2023-02-11T09:39:27;55.20;;;32.70;;
39218;SDS011;24934;52.752;6.964;2023-02-11T09:42:12;54.07;;;31.87;;
39218;SDS011;24934;52.752;6.964;2023-02-11T09:44:54;54.07;;;30.50;;
39218;SDS011;24934;52.752;6.964;2023-02-11T09:47:25;55.43;;;32.93;;
39218;SDS011;24934;52.752;6.964;2023-02-11T09:49:59;55.37;;;31.77;;
39218;SDS011;24934;52.752;6.964;2023-02-11T09:52:31;54.13;;;33.53;;
39218;SDS011;24934;52.752;6.964;2023-02-11T09:54:58;53.97;;;32.73;;
39218;SDS011;24934;52.752;6.964;2023-02-11T09:57:33;49.20;;;31.30;;
39218;SDS011;24934;52.752;6.964;2023-02-11T10:00:00;56.60;;;30.43;;
39218;SDS011;24934;52.752;6.964;2023-02-11T10:10:53;41.33;;;28.00;;
39218;SDS011;24934;52.752;6.964;2023-02-11T10:13:47;42.90;;;28.27;;
39218;SDS011;24934;52.752;6.964;2023-02-11T10:16:45;52.07;;;29.10;;
39218;SDS011;24934;52.752;6.964;2023-02-11T10:21:52;44.50;;;27.87;;
39218;SDS011;24934;52.752;6.964;2023-02-11T10:24:20;47.40;;;26.77;;
39218;SDS011;24934;52.752;6.964;2023-02-11T10:26:46;38.10;;;25.43;;
39218;SDS011;24934;52.752;6.964;2023-02-11T10:29:17;39.87;;;24.63;;
39218;SDS011;24934;52.752;6.964;2023-02-11T10:32:23;42.40;;;24.97;;
39218;SDS011;24934;52.752;6.964;2023-02-11T10:35:01;39.27;;;24.43;;
39218;SDS011;24934;52.752;6.964;2023-02-11T10:37:33;34.60;;;23.87;;
39218;SDS011;24934;52.752;6.964;2023-02-11T10:39:59;35.10;;;25.60;;
39218;SDS011;24934;52.752;6.964;2023-02-11T10:42:25;35.80;;;24.27;;
39218;SDS011;24934;52.752;6.964;2023-02-11T10:44:59;37.50;;;23.87;;
39218;SDS011;24934;52.752;6.964;2023-02-11T10:47:29;34.27;;;23.90;;
39218;SDS011;24934;52.752;6.964;2023-02-11T10:50:03;35.47;;;22.77;;
39218;SDS011;24934;52.752;6.964;2023-02-11T10:53:16;40.87;;;23.43;;
39218;SDS011;24934;52.752;6.964;2023-02-11T10:56:03;33.43;;;22.20;;
39218;SDS011;24934;52.752;6.964;2023-02-11T10:58:30;29.50;;;21.40;;
39218;SDS011;24934;52.752;6.964;2023-02-11T11:01:04;31.40;;;21.63;;
39218;SDS011;24934;52.752;6.964;2023-02-11T11:03:33;28.47;;;20.70;;
39218;SDS011;24934;52.752;6.964;2023-02-11T11:06:04;29.73;;;21.23;;
39218;SDS011;24934;52.752;6.964;2023-02-11T11:08:45;30.57;;;20.53;;
39218;SDS011;24934;52.752;6.964;2023-02-11T11:11:17;38.40;;;21.43;;
39218;SDS011;24934;52.752;6.964;2023-02-11T11:16:18;27.10;;;20.63;;
39218;SDS011;24934;52.752;6.964;2023-02-11T11:18:45;27.63;;;20.80;;
39218;SDS011;24934;52.752;6.964;2023-02-11T11:21:13;31.43;;;21.23;;
39218;SDS011;24934;52.752;6.964;2023-02-11T11:24:20;29.27;;;21.13;;
39218;SDS011;24934;52.752;6.964;2023-02-11T11:26:58;29.40;;;19.60;;
39218;SDS011;24934;52.752;6.964;2023-02-11T11:29:37;32.03;;;20.80;;
39218;SDS011;24934;52.752;6.964;2023-02-11T11:32:14;25.80;;;19.57;;
39218;SDS011;24934;52.752;6.964;2023-02-11T11:34:43;29.90;;;20.50;;
39218;SDS011;24934;52.752;6.964;2023-02-11T11:37:33;29.23;;;20.23;;
39218;SDS011;24934;52.752;6.964;2023-02-11T11:42:41;29.93;;;20.30;;
39218;SDS011;24934;52.752;6.964;2023-02-11T11:47:55;27.37;;;19.67;;
39218;SDS011;24934;52.752;6.964;2023-02-11T11:55:41;27.80;;;19.20;;
39218;SDS011;24934;52.752;6.964;2023-02-11T11:58:12;25.50;;;19.00;;
39218;SDS011;24934;52.752;6.964;2023-02-11T12:03:41;32.07;;;18.73;;
39218;SDS011;24934;52.752;6.964;2023-02-11T12:06:34;26.00;;;16.83;;
39218;SDS011;24934;52.752;6.964;2023-02-11T12:09:25;26.23;;;17.30;;
39218;SDS011;24934;52.752;6.964;2023-02-11T12:16:59;22.77;;;17.17;;
39218;SDS011;24934;52.752;6.964;2023-02-11T12:33:01;27.17;;;16.47;;
39218;SDS011;24934;52.752;6.964;2023-02-11T12:35:58;28.20;;;16.37;;
39218;SDS011;24934;52.752;6.964;2023-02-11T12:41:22;18.20;;;16.07;;
39218;SDS011;24934;52.752;6.964;2023-02-11T12:44:40;24.10;;;16.40;;
39218;SDS011;24934;52.752;6.964;2023-02-11T12:56:16;27.03;;;16.40;;
39218;SDS011;24934;52.752;6.964;2023-02-11T12:58:55;23.97;;;15.43;;
39218;SDS011;24934;52.752;6.964;2023-02-11T13:01:32;24.97;;;15.40;;
39218;SDS011;24934;52.752;6.964;2023-02-11T13:04:05;25.97;;;15.80;;
39218;SDS011;24934;52.752;6.964;2023-02-11T13:06:51;22.87;;;15.03;;
39218;SDS011;24934;52.752;6.964;2023-02-11T13:12:18;30.00;;;16.17;;
39218;SDS011;24934;52.752;6.964;2023-02-11T13:15:05;22.53;;;14.80;;
39218;SDS011;24934;52.752;6.964;2023-02-11T13:17:39;21.00;;;15.30;;
39218;SDS011;24934;52.752;6.964;2023-02-11T13:20:34;21.80;;;14.83;;
39218;SDS011;24934;52.752;6.964;2023-02-11T13:23:12;19.70;;;14.90;;
39218;SDS011;24934;52.752;6.964;2023-02-11T13:25:53;21.73;;;14.53;;
39218;SDS011;24934;52.752;6.964;2023-02-11T13:28:47;22.43;;;14.33;;
39218;SDS011;24934;52.752;6.964;2023-02-11T13:31:21;26.10;;;14.03;;
39218;SDS011;24934;52.752;6.964;2023-02-11T13:33:51;19.87;;;14.10;;
39218;SDS011;24934;52.752;6.964;2023-02-11T13:36:21;25.90;;;14.00;;
39218;SDS011;24934;52.752;6.964;2023-02-11T13:39:03;19.30;;;14.27;;
39218;SDS011;24934;52.752;6.964;2023-02-11T13:41:31;27.17;;;14.17;;
39218;SDS011;24934;52.752;6.964;2023-02-11T13:43:58;23.00;;;14.10;;
39218;SDS011;24934;52.752;6.964;2023-02-11T13:51:59;21.33;;;13.77;;
39218;SDS011;24934;52.752;6.964;2023-02-11T13:54:30;20.57;;;14.40;;
39218;SDS011;24934;52.752;6.964;2023-02-11T13:59:46;20.17;;;13.93;;
39218;SDS011;24934;52.752;6.964;2023-02-11T14:02:21;27.57;;;13.93;;
39218;SDS011;24934;52.752;6.964;2023-02-11T14:10:58;23.30;;;13.40;;
39218;SDS011;24934;52.752;6.964;2023-02-11T14:13:33;23.67;;;13.07;;
39218;SDS011;24934;52.752;6.964;2023-02-11T14:16:19;22.83;;;14.03;;
39218;SDS011;24934;52.752;6.964;2023-02-11T14:26:53;17.50;;;12.87;;
39218;SDS011;24934;52.752;6.964;2023-02-11T14:29:59;20.07;;;12.30;;
39218;SDS011;24934;52.752;6.964;2023-02-11T14:32:48;17.50;;;11.90;;
39218;SDS011;24934;52.752;6.964;2023-02-11T14:41:19;21.13;;;12.20;;
39218;SDS011;24934;52.752;6.964;2023-02-11T14:43:53;16.80;;;11.73;;
39218;SDS011;24934;52.752;6.964;2023-02-11T14:46:29;17.50;;;12.17;;
39218;SDS011;24934;52.752;6.964;2023-02-11T14:48:58;18.70;;;12.03;;
39218;SDS011;24934;52.752;6.964;2023-02-11T14:51:27;17.53;;;11.23;;
39218;SDS011;24934;52.752;6.964;2023-02-11T14:53:56;18.73;;;11.53;;
39218;SDS011;24934;52.752;6.964;2023-02-11T14:56:27;17.97;;;11.40;;
39218;SDS011;24934;52.752;6.964;2023-02-11T14:58:58;16.63;;;11.47;;
39218;SDS011;24934;52.752;6.964;2023-02-11T15:04:00;20.80;;;11.70;;
39218;SDS011;24934;52.752;6.964;2023-02-11T15:08:59;19.07;;;11.17;;
39218;SDS011;24934;52.752;6.964;2023-02-11T15:11:31;20.90;;;11.13;;
39218;SDS011;24934;52.752;6.964;2023-02-11T15:14:06;23.20;;;11.90;;
39218;SDS011;24934;52.752;6.964;2023-02-11T15:16:40;19.57;;;11.57;;
39218;SDS011;24934;52.752;6.964;2023-02-11T15:19:10;17.27;;;11.30;;
39218;SDS011;24934;52.752;6.964;2023-02-11T15:22:15;18.97;;;11.20;;
39218;SDS011;24934;52.752;6.964;2023-02-11T15:24:56;15.73;;;10.47;;
39218;SDS011;24934;52.752;6.964;2023-02-11T15:27:24;19.23;;;10.27;;
39218;SDS011;24934;52.752;6.964;2023-02-11T15:29:50;15.10;;;9.50;;
39218;SDS011;24934;52.752;6.964;2023-02-11T15:32:23;16.90;;;10.57;;
39218;SDS011;24934;52.752;6.964;2023-02-11T15:34:50;17.43;;;10.70;;
39218;SDS011;24934;52.752;6.964;2023-02-11T15:37:22;19.13;;;9.80;;
39218;SDS011;24934;52.752;6.964;2023-02-11T15:40:06;19.57;;;10.73;;
39218;SDS011;24934;52.752;6.964;2023-02-11T15:42:36;24.23;;;10.33;;
39218;SDS011;24934;52.752;6.964;2023-02-11T15:47:50;23.83;;;10.20;;
39218;SDS011;24934;52.752;6.964;2023-02-11T15:50:28;19.70;;;10.80;;
39218;SDS011;24934;52.752;6.964;2023-02-11T15:52:56;16.90;;;10.17;;
39218;SDS011;24934;52.752;6.964;2023-02-11T15:55:25;18.87;;;9.87;;
39218;SDS011;24934;52.752;6.964;2023-02-11T15:57:53;18.73;;;9.43;;
39218;SDS011;24934;52.752;6.964;2023-02-11T16:00:22;18.60;;;9.90;;
39218;SDS011;24934;52.752;6.964;2023-02-11T16:02:50;17.83;;;9.73;;
39218;SDS011;24934;52.752;6.964;2023-02-11T16:05:33;16.37;;;10.00;;
39218;SDS011;24934;52.752;6.964;2023-02-11T16:08:12;15.53;;;9.30;;
39218;SDS011;24934;52.752;6.964;2023-02-11T16:10:58;19.37;;;10.10;;
39218;SDS011;24934;52.752;6.964;2023-02-11T16:13:28;15.93;;;9.87;;
39218;SDS011;24934;52.752;6.964;2023-02-11T16:16:01;18.60;;;9.40;;
39218;SDS011;24934;52.752;6.964;2023-02-11T16:20:57;23.47;;;10.17;;
39218;SDS011;24934;52.752;6.964;2023-02-11T16:23:25;17.17;;;9.37;;
39218;SDS011;24934;52.752;6.964;2023-02-11T16:26:03;18.40;;;9.20;;
39218;SDS011;24934;52.752;6.964;2023-02-11T16:28:44;16.80;;;9.67;;
39218;SDS011;24934;52.752;6.964;2023-02-11T16:31:10;17.80;;;9.37;;
39218;SDS011;24934;52.752;6.964;2023-02-11T16:33:36;24.27;;;9.67;;
39218;SDS011;24934;52.752;6.964;2023-02-11T16:36:08;15.97;;;8.97;;
39218;SDS011;24934;52.752;6.964;2023-02-11T16:38:40;23.33;;;9.60;;
39218;SDS011;24934;52.752;6.964;2023-02-11T16:41:08;16.07;;;9.50;;
39218;SDS011;24934;52.752;6.964;2023-02-11T16:43:37;16.10;;;8.70;;
39218;SDS011;24934;52.752;6.964;2023-02-11T16:46:03;15.00;;;8.90;;
39218;SDS011;24934;52.752;6.964;2023-02-11T16:48:30;19.37;;;10.27;;
39218;SDS011;24934;52.752;6.964;2023-02-11T16:50:56;18.20;;;9.77;;
39218;SDS011;24934;52.752;6.964;2023-02-11T16:53:22;20.00;;;9.83;;
39218;SDS011;24934;52.752;6.964;2023-02-11T16:55:51;12.17;;;8.47;;
39218;SDS011;24934;52.752;6.964;2023-02-11T16:58:18;15.97;;;8.90;;
39218;SDS011;24934;52.752;6.964;2023-02-11T17:00:44;16.93;;;9.13;;
39218;SDS011;24934;52.752;6.964;2023-02-11T17:03:16;14.07;;;9.53;;
39218;SDS011;24934;52.752;6.964;2023-02-11T17:05:46;20.03;;;8.90;;